Time;durP1;ratioP1;P1;durP2;ratioP2;P2;SDS_P1;SDS_P2;PMS_P1;PMS_P2;Temp;Humidity;BMP_temperature;BMP_pressure;BME280_temperature;BME280_humidity;BME280_pressure;Samples;Min_cycle;Max_cycle;Signal;HPM_P1;HPM_P2
2021/03/15 00:00:09;;;;;;;;;;;23.60;42.30;;;;;;1549539;76;1936;-69
2021/03/15 00:02:11;;;;;;;;;;;23.70;42.30;;;;;;1547338;76;804;-68
2021/03/15 00:04:13;;;;;;;;;;;23.70;42.20;;;;;;1546273;76;1160;-69
2021/03/15 00:06:15;;;;;;;;;;;23.80;42.10;;;;;;1544182;76;680;-69
2021/03/15 00:08:17;;;;;;;;;;;23.70;42.20;;;;;;1546487;75;729;-69
2021/03/15 00:10:19;;;;;;;;;;;23.80;42.10;;;;;;1535133;76;806;-69
2021/03/15 00:12:20;;;;;;;;;;;23.80;42.20;;;;;;1545224;76;716;-68
2021/03/15 00:14:22;;;;;;;;;;;23.80;42.10;;;;;;1543175;76;1153;-68
2021/03/15 00:16:24;;;;;;;;;;;23.80;42.10;;;;;;1538812;76;807;-68
2021/03/15 00:18:26;;;;;;;;;;;23.80;42.10;;;;;;1542003;76;750;-69
2021/03/15 00:20:28;;;;;;;;;;;23.90;42.10;;;;;;1539563;76;1936;-69
2021/03/15 00:22:30;;;;;;;;;;;23.80;42.00;;;;;;1540390;76;700;-68
2021/03/15 00:24:32;;;;;;;;;;;23.70;42.10;;;;;;1510811;77;1195;-70
2021/03/15 00:26:34;;;;;;;;;;;23.80;42.20;;;;;;1547468;75;802;-69
2021/03/15 00:28:35;;;;;;;;;;;23.70;42.20;;;;;;1513376;77;739;-68
2021/03/15 00:30:37;;;;;;;;;;;23.80;42.30;;;;;;1538797;76;804;-68
2021/03/15 00:32:39;;;;;;;;;;;23.60;42.60;;;;;;1537511;76;727;-68
2021/03/15 00:34:41;;;;;;;;;;;23.60;42.60;;;;;;1542965;76;1211;-68
2021/03/15 00:36:43;;;;;;;;;;;23.60;42.80;;;;;;1538929;76;725;-68
2021/03/15 00:38:45;;;;;;;;;;;23.60;42.90;;;;;;1538996;76;704;-68
2021/03/15 00:40:47;;;;;;;;;;;23.50;42.90;;;;;;1513233;74;214558;-58
2021/03/15 00:42:49;;;;;;;;;;;23.50;42.90;;;;;;1558035;75;1159;-56
2021/03/15 00:44:51;;;;;;;;;;;23.50;43.00;;;;;;1573525;75;784;-58
2021/03/15 00:46:53;;;;;;;;;;;23.50;42.80;;;;;;1565793;74;813;-57
2021/03/15 00:48:55;;;;;;;;;;;23.60;42.70;;;;;;1561311;75;713;-59
2021/03/15 00:50:57;;;;;;;;;;;23.60;42.60;;;;;;1572227;74;811;-58
2021/03/15 00:52:59;;;;;;;;;;;23.70;42.60;;;;;;1560613;74;1068;-58
2021/03/15 00:55:01;;;;;;;;;;;23.70;42.40;;;;;;1563614;75;724;-59
2021/03/15 00:57:03;;;;;;;;;;;23.70;42.30;;;;;;1566547;74;721;-58
2021/03/15 00:59:04;;;;;;;;;;;23.70;42.30;;;;;;1564990;74;716;-60
2021/03/15 01:01:06;;;;;;;;;;;23.70;42.20;;;;;;1568254;74;1945;-59
2021/03/15 01:03:08;;;;;;;;;;;23.80;42.20;;;;;;1562112;74;1069;-57
2021/03/15 01:05:11;;;;;;;;;;;23.80;42.10;;;;;;1574031;75;776;-59
2021/03/15 01:07:13;;;;;;;;;;;23.80;42.10;;;;;;1564783;74;748;-57
2021/03/15 01:09:15;;;;;;;;;;;23.70;42.10;;;;;;1567712;75;721;-57
2021/03/15 01:11:17;;;;;;;;;;;23.70;42.10;;;;;;1566457;74;1166;-57
2021/03/15 01:13:19;;;;;;;;;;;23.70;42.30;;;;;;1574602;75;785;-58
2021/03/15 01:15:22;;;;;;;;;;;23.80;42.30;;;;;;1572053;75;733;-58
2021/03/15 01:17:24;;;;;;;;;;;23.70;42.30;;;;;;1570827;75;788;-57
2021/03/15 01:19:27;;;;;;;;;;;23.80;42.10;;;;;;1567998;75;781;-58
2021/03/15 01:21:28;;;;;;;;;;;23.80;42.10;;;;;;1567705;74;1957;-58
2021/03/15 01:23:30;;;;;;;;;;;23.90;42.00;;;;;;1576144;75;702;-59
2021/03/15 01:25:34;;;;;;;;;;;23.80;41.90;;;;;;1562568;75;757;-58
2021/03/15 01:27:36;;;;;;;;;;;23.80;41.90;;;;;;1572205;74;769;-55
2021/03/15 01:29:38;;;;;;;;;;;23.80;41.90;;;;;;1571062;75;805;-55
2021/03/15 01:31:39;;;;;;;;;;;23.80;41.90;;;;;;1573870;74;1096;-57
2021/03/15 01:33:41;;;;;;;;;;;23.80;42.10;;;;;;1576407;75;744;-59
2021/03/15 01:35:43;;;;;;;;;;;23.80;42.10;;;;;;1573388;75;748;-59
2021/03/15 01:37:45;;;;;;;;;;;23.80;42.00;;;;;;1570353;75;654;-56
2021/03/15 01:39:47;;;;;;;;;;;23.70;42.30;;;;;;1573019;75;743;-58
2021/03/15 01:41:49;;;;;;;;;;;23.70;42.30;;;;;;1570702;74;1942;-56
2021/03/15 01:43:51;;;;;;;;;;;23.70;42.30;;;;;;1575615;74;728;-57
2021/03/15 01:45:52;;;;;;;;;;;23.80;42.50;;;;;;1568838;75;771;-57
2021/03/15 01:47:54;;;;;;;;;;;23.80;42.50;;;;;;1570618;75;787;-57
2021/03/15 01:49:57;;;;;;;;;;;23.70;42.50;;;;;;1575865;75;786;-58
2021/03/15 01:51:59;;;;;;;;;;;23.60;42.50;;;;;;1572160;74;1295;-56
2021/03/15 01:54:00;;;;;;;;;;;23.60;42.50;;;;;;1574123;75;741;-58
2021/03/15 01:56:02;;;;;;;;;;;23.70;42.50;;;;;;1573239;75;733;-58
2021/03/15 01:58:05;;;;;;;;;;;23.70;42.50;;;;;;1573311;75;851;-58
2021/03/15 02:00:08;;;;;;;;;;;23.70;42.40;;;;;;1568355;75;1932;-58
2021/03/15 02:02:10;;;;;;;;;;;23.80;42.30;;;;;;1571213;74;1139;-55
2021/03/15 02:04:11;;;;;;;;;;;23.80;42.10;;;;;;1574933;75;677;-58
2021/03/15 02:06:13;;;;;;;;;;;23.80;42.00;;;;;;1573289;74;640;-58
2021/03/15 02:08:15;;;;;;;;;;;23.90;42.10;;;;;;1568221;75;682;-55
2021/03/15 02:10:17;;;;;;;;;;;23.90;41.90;;;;;;1576875;75;741;-58
2021/03/15 02:12:23;;;;;;;;;;;23.90;41.90;;;;;;1570861;74;1125;-58
2021/03/15 02:14:33;;;;;;;;;;;23.90;42.00;;;;;;1566767;75;956;-58
2021/03/15 02:16:37;;;;;;;;;;;23.90;41.80;;;;;;1573805;75;744;-57
2021/03/15 02:18:58;;;;;;;;;;;23.80;41.70;;;;;;1576397;75;794;-55
2021/03/15 02:21:05;;;;;;;;;;;23.80;41.80;;;;;;1469916;79;1920;-58
2021/03/15 02:23:08;;;;;;;;;;;23.80;41.80;;;;;;1471721;78;2142;-59
2021/03/15 02:25:11;;;;;;;;;;;23.80;41.80;;;;;;1470512;79;684;-58
2021/03/15 02:27:21;;;;;;;;;;;23.70;42.10;;;;;;1554341;75;863;-55
2021/03/15 02:29:41;;;;;;;;;;;23.60;42.10;;;;;;1572698;75;762;-58
2021/03/15 02:31:44;;;;;;;;;;;23.70;42.00;;;;;;1575644;74;1114;-58
2021/03/15 02:33:48;;;;;;;;;;;23.70;41.90;;;;;;1575309;75;789;-59
2021/03/15 02:35:50;;;;;;;;;;;23.80;41.70;;;;;;1521663;75;1067;-56
2021/03/15 02:37:52;;;;;;;;;;;23.70;41.80;;;;;;1576209;75;766;-58
2021/03/15 02:39:55;;;;;;;;;;;23.80;41.90;;;;;;1567564;74;722;-55
2021/03/15 02:41:57;;;;;;;;;;;23.70;41.90;;;;;;1565365;75;1926;-58
2021/03/15 02:44:00;;;;;;;;;;;23.80;42.10;;;;;;1572865;75;881;-58
2021/03/15 02:46:03;;;;;;;;;;;23.70;42.20;;;;;;1570411;75;720;-58
2021/03/15 02:48:05;;;;;;;;;;;23.70;42.10;;;;;;1564271;75;716;-58
2021/03/15 02:50:08;;;;;;;;;;;23.70;42.10;;;;;;1568527;75;680;-58
2021/03/15 02:52:10;;;;;;;;;;;23.70;42.10;;;;;;1571432;74;1220;-57
2021/03/15 02:54:12;;;;;;;;;;;23.70;42.10;;;;;;1565562;74;694;-58
2021/03/15 02:56:15;;;;;;;;;;;23.60;42.00;;;;;;1572774;74;775;-57
2021/03/15 02:58:17;;;;;;;;;;;23.60;42.00;;;;;;1572932;75;674;-58
2021/03/15 03:00:19;;;;;;;;;;;23.60;42.00;;;;;;1572929;75;738;-56
2021/03/15 03:02:21;;;;;;;;;;;23.60;42.00;;;;;;1576383;75;1927;-55
2021/03/15 03:04:23;;;;;;;;;;;23.60;42.20;;;;;;1574585;75;633;-57
2021/03/15 03:06:26;;;;;;;;;;;23.50;42.20;;;;;;1572423;74;842;-59
2021/03/15 03:08:28;;;;;;;;;;;23.40;42.20;;;;;;1570244;75;762;-58
2021/03/15 03:10:30;;;;;;;;;;;23.50;42.40;;;;;;1569301;75;934;-58
2021/03/15 03:12:33;;;;;;;;;;;23.50;42.30;;;;;;1572204;74;1158;-57
2021/03/15 03:14:35;;;;;;;;;;;23.50;42.40;;;;;;1560703;75;882;-58
2021/03/15 03:16:38;;;;;;;;;;;23.50;42.20;;;;;;1568130;75;913;-58
2021/03/15 03:18:40;;;;;;;;;;;23.60;42.30;;;;;;1557000;75;710;-59
2021/03/15 03:20:44;;;;;;;;;;;23.60;42.00;;;;;;1566411;74;1939;-56
2021/03/15 03:22:47;;;;;;;;;;;23.60;41.80;;;;;;1565968;75;1149;-59
2021/03/15 03:24:48;;;;;;;;;;;23.60;41.80;;;;;;1549791;75;785;-57
2021/03/15 03:26:50;;;;;;;;;;;23.60;42.00;;;;;;1539594;71;218602;-67
2021/03/15 03:28:53;;;;;;;;;;;23.60;41.90;;;;;;1539924;75;727;-66
2021/03/15 03:30:57;;;;;;;;;;;23.50;42.20;;;;;;1512877;77;750;-69
2021/03/15 03:32:59;;;;;;;;;;;23.50;42.20;;;;;;1514048;77;1022;-67
2021/03/15 03:35:02;;;;;;;;;;;23.40;42.30;;;;;;1545770;75;740;-69
2021/03/15 03:37:04;;;;;;;;;;;23.40;42.30;;;;;;1556965;75;1170;-70
2021/03/15 03:39:09;;;;;;;;;;;23.40;42.50;;;;;;1548705;75;676;-71
2021/03/15 03:41:11;;;;;;;;;;;23.50;42.80;;;;;;1540687;75;1959;-65
2021/03/15 03:43:13;;;;;;;;;;;23.40;42.90;;;;;;1530078;75;685;-68
2021/03/15 03:45:15;;;;;;;;;;;23.40;43.10;;;;;;1558628;75;1152;-68
2021/03/15 03:47:17;;;;;;;;;;;23.40;43.10;;;;;;1559191;75;822;-67
2021/03/15 03:49:18;;;;;;;;;;;23.40;43.10;;;;;;1552410;75;720;-68
2021/03/15 03:51:21;;;;;;;;;;;23.40;43.10;;;;;;1562098;75;674;-67
2021/03/15 03:53:26;;;;;;;;;;;23.40;43.10;;;;;;1543547;75;753;-70
2021/03/15 03:55:29;;;;;;;;;;;23.30;43.20;;;;;;1551316;75;1359;-68
2021/03/15 03:57:34;;;;;;;;;;;23.40;43.20;;;;;;1557420;75;1532;-65
2021/03/15 03:59:36;;;;;;;;;;;23.40;43.10;;;;;;1548609;75;737;-66
2021/03/15 04:01:39;;;;;;;;;;;23.40;43.00;;;;;;1543833;75;1913;-68
2021/03/15 04:03:42;;;;;;;;;;;23.40;43.10;;;;;;1557982;75;776;-68
2021/03/15 04:05:48;;;;;;;;;;;23.40;43.10;;;;;;1517078;77;1234;-67
2021/03/15 04:07:51;;;;;;;;;;;23.40;43.10;;;;;;1545554;75;955;-68
2021/03/15 04:10:01;;;;;;;;;;;23.40;43.10;;;;;;1537728;75;744;-69
2021/03/15 04:12:09;;;;;;;;;;;23.50;43.20;;;;;;1538497;75;1694;-67
2021/03/15 04:14:13;;;;;;;;;;;23.50;43.10;;;;;;1534000;75;841;-67
2021/03/15 04:16:15;;;;;;;;;;;23.40;42.90;;;;;;1547375;75;1080;-67
2021/03/15 04:18:17;;;;;;;;;;;23.50;43.00;;;;;;1544099;75;738;-69
2021/03/15 04:20:35;;;;;;;;;;;23.50;42.70;;;;;;1532140;75;826;-66
2021/03/15 04:22:38;;;;;;;;;;;23.50;42.70;;;;;;1551484;75;1933;-66
2021/03/15 04:24:40;;;;;;;;;;;23.50;42.60;;;;;;1548726;75;717;-69
2021/03/15 04:26:42;;;;;;;;;;;23.50;42.60;;;;;;1541918;75;1173;-68
2021/03/15 04:28:44;;;;;;;;;;;23.50;42.60;;;;;;1544051;75;804;-68
2021/03/15 04:30:46;;;;;;;;;;;23.60;42.50;;;;;;1555159;75;728;-66
2021/03/15 04:32:52;;;;;;;;;;;23.50;42.50;;;;;;1549445;75;778;-66
2021/03/15 04:34:52;;;;;;;;;;;23.60;42.50;;;;;;1547204;75;916;-67
2021/03/15 04:36:54;;;;;;;;;;;23.50;42.50;;;;;;1553088;75;1215;-66
2021/03/15 04:38:57;;;;;;;;;;;23.60;42.60;;;;;;1549097;75;709;-68
2021/03/15 04:40:59;;;;;;;;;;;23.60;42.30;;;;;;1551739;75;1911;-66
2021/03/15 04:43:01;;;;;;;;;;;23.60;42.30;;;;;;1548225;75;745;-68
2021/03/15 04:45:03;;;;;;;;;;;23.60;42.30;;;;;;1551299;75;813;-67
2021/03/15 04:47:05;;;;;;;;;;;23.60;42.30;;;;;;1549256;75;1144;-66
2021/03/15 04:49:07;;;;;;;;;;;23.60;42.50;;;;;;1549759;75;713;-66
2021/03/15 04:51:09;;;;;;;;;;;23.60;42.20;;;;;;1550967;75;728;-66
2021/03/15 04:53:12;;;;;;;;;;;23.60;42.20;;;;;;1552036;75;798;-67
2021/03/15 04:55:14;;;;;;;;;;;23.60;42.20;;;;;;1562734;75;1218;-68
2021/03/15 04:57:16;;;;;;;;;;;23.60;42.10;;;;;;1544986;75;699;-67
2021/03/15 04:59:18;;;;;;;;;;;23.60;42.20;;;;;;1553927;75;727;-68
2021/03/15 05:01:20;;;;;;;;;;;23.70;42.20;;;;;;1555135;75;1935;-67
2021/03/15 05:03:22;;;;;;;;;;;23.60;42.10;;;;;;1554253;75;734;-67
2021/03/15 05:05:24;;;;;;;;;;;23.60;42.10;;;;;;1549916;75;1399;-66
2021/03/15 05:07:26;;;;;;;;;;;23.70;42.10;;;;;;1514716;77;905;-70
2021/03/15 05:09:27;;;;;;;;;;;23.70;42.10;;;;;;1530916;75;783;-66
2021/03/15 05:11:32;;;;;;;;;;;23.60;42.00;;;;;;1537507;75;673;-66
2021/03/15 05:13:34;;;;;;;;;;;23.70;42.20;;;;;;1539891;75;809;-66
2021/03/15 05:15:36;;;;;;;;;;;23.70;42.10;;;;;;1537869;75;1342;-68
2021/03/15 05:17:38;;;;;;;;;;;23.70;42.00;;;;;;1543523;75;781;-66
2021/03/15 05:19:40;;;;;;;;;;;23.70;41.90;;;;;;1541478;75;702;-67
2021/03/15 05:21:42;;;;;;;;;;;23.70;42.00;;;;;;1544204;75;1939;-68
2021/03/15 05:23:44;;;;;;;;;;;23.70;41.90;;;;;;1541743;75;766;-67
2021/03/15 05:25:46;;;;;;;;;;;23.70;42.00;;;;;;1549126;75;1441;-67
2021/03/15 05:27:51;;;;;;;;;;;23.70;41.90;;;;;;1534600;75;843;-66
2021/03/15 05:29:53;;;;;;;;;;;23.70;41.90;;;;;;1543393;75;687;-64
2021/03/15 05:31:55;;;;;;;;;;;23.70;42.00;;;;;;1539027;75;785;-63
2021/03/15 05:33:57;;;;;;;;;;;23.80;41.90;;;;;;1542050;75;689;-67
2021/03/15 05:35:59;;;;;;;;;;;23.80;42.20;;;;;;1546764;75;1124;-66
2021/03/15 05:38:00;;;;;;;;;;;23.70;42.30;;;;;;1541158;75;816;-67
2021/03/15 05:40:03;;;;;;;;;;;23.80;42.20;;;;;;1544891;75;769;-67
2021/03/15 05:42:06;;;;;;;;;;;23.80;42.10;;;;;;1538803;75;1916;-66
2021/03/15 05:44:27;;;;;;;;;;;23.80;42.30;;;;;;1544035;75;724;-67
2021/03/15 05:46:45;;;;;;;;;;;23.80;42.20;;;;;;1541816;75;1167;-69
2021/03/15 05:49:01;;;;;;;;;;;23.80;42.30;;;;;;1545057;75;1893;-65
2021/03/15 05:51:10;;;;;;;;;;;23.80;42.40;;;;;;1537837;75;779;-67
2021/03/15 05:53:32;;;;;;;;;;;23.80;42.20;;;;;;1537149;75;786;-67
2021/03/15 05:55:51;;;;;;;;;;;23.80;42.30;;;;;;1537208;75;1226;-68
2021/03/15 05:58:13;;;;;;;;;;;23.80;42.30;;;;;;1538591;75;769;-65
2021/03/15 06:00:16;;;;;;;;;;;23.80;42.20;;;;;;1540852;75;744;-68
2021/03/15 06:02:26;;;;;;;;;;;23.80;42.10;;;;;;1535339;75;1939;-66
2021/03/15 06:04:46;;;;;;;;;;;23.90;42.10;;;;;;1531507;76;1054;-67
2021/03/15 06:06:49;;;;;;;;;;;23.80;41.70;;;;;;1536322;75;1139;-66
2021/03/15 06:08:52;;;;;;;;;;;23.80;41.70;;;;;;1543217;75;776;-66
2021/03/15 06:11:04;;;;;;;;;;;23.90;41.80;;;;;;1541200;76;717;-67
2021/03/15 06:13:08;;;;;;;;;;;23.90;41.90;;;;;;1547965;75;714;-66
2021/03/15 06:15:10;;;;;;;;;;;23.90;41.90;;;;;;1552203;76;1663;-66
2021/03/15 06:17:12;;;;;;;;;;;23.90;41.80;;;;;;1535650;75;1167;-69
2021/03/15 06:19:14;;;;;;;;;;;23.90;41.80;;;;;;1539479;74;1094;-65
2021/03/15 06:21:16;;;;;;;;;;;23.90;41.80;;;;;;1549862;75;714;-67
2021/03/15 06:23:18;;;;;;;;;;;23.90;41.60;;;;;;1538838;75;1934;-66
2021/03/15 06:25:20;;;;;;;;;;;23.90;41.60;;;;;;1546116;75;1149;-67
2021/03/15 06:27:21;;;;;;;;;;;23.90;41.70;;;;;;1541608;75;734;-67
2021/03/15 06:29:23;;;;;;;;;;;24.00;41.00;;;;;;1542590;75;682;-67
2021/03/15 06:31:25;;;;;;;;;;;24.00;40.70;;;;;;1550183;76;692;-67
2021/03/15 06:33:27;;;;;;;;;;;23.90;40.40;;;;;;1544363;75;734;-64
2021/03/15 06:35:36;;;;;;;;;;;23.90;40.50;;;;;;1545967;75;1190;-66
2021/03/15 06:37:38;;;;;;;;;;;23.90;40.20;;;;;;1544285;75;783;-68
2021/03/15 06:39:39;;;;;;;;;;;23.90;40.10;;;;;;1544063;75;839;-66
2021/03/15 06:41:42;;;;;;;;;;;23.90;40.00;;;;;;1544051;75;1931;-68
2021/03/15 06:43:43;;;;;;;;;;;23.90;40.20;;;;;;1543090;75;728;-70
2021/03/15 06:45:49;;;;;;;;;;;23.90;40.00;;;;;;1543824;75;1130;-67
2021/03/15 06:47:51;;;;;;;;;;;23.90;39.80;;;;;;1541759;75;777;-69
2021/03/15 06:49:54;;;;;;;;;;;23.90;39.70;;;;;;1537668;75;689;-69
2021/03/15 06:52:09;;;;;;;;;;;23.90;39.80;;;;;;1539545;76;709;-67
2021/03/15 06:54:25;;;;;;;;;;;23.90;39.70;;;;;;1546004;75;660;-67
2021/03/15 06:56:27;;;;;;;;;;;23.90;39.50;;;;;;1540054;76;1153;-67
2021/03/15 06:58:31;;;;;;;;;;;24.00;39.40;;;;;;1541476;75;798;-66
2021/03/15 07:00:33;;;;;;;;;;;24.00;39.20;;;;;;1542864;75;696;-65
2021/03/15 07:02:35;;;;;;;;;;;24.00;39.10;;;;;;1543579;75;1943;-64
2021/03/15 07:04:37;;;;;;;;;;;24.00;39.10;;;;;;1541998;75;753;-65
2021/03/15 07:06:41;;;;;;;;;;;24.00;39.20;;;;;;1537798;75;1090;-67
2021/03/15 07:08:42;;;;;;;;;;;24.00;38.90;;;;;;1541655;75;1542;-71
2021/03/15 07:10:45;;;;;;;;;;;24.10;38.80;;;;;;1539054;75;757;-65
2021/03/15 07:12:47;;;;;;;;;;;24.10;38.90;;;;;;1547892;75;721;-68
2021/03/15 07:14:49;;;;;;;;;;;24.10;39.10;;;;;;1542996;75;775;-68
2021/03/15 07:16:58;;;;;;;;;;;24.00;38.90;;;;;;1538474;75;1126;-67
2021/03/15 07:19:01;;;;;;;;;;;24.00;39.00;;;;;;1540799;75;748;-68
2021/03/15 07:21:05;;;;;;;;;;;24.00;38.80;;;;;;1541569;75;649;-62
2021/03/15 07:23:07;;;;;;;;;;;24.10;37.30;;;;;;1543206;75;1936;-62
2021/03/15 07:25:09;;;;;;;;;;;24.10;36.00;;;;;;1544062;75;719;-62
2021/03/15 07:27:12;;;;;;;;;;;24.10;35.60;;;;;;1544326;75;1195;-64
2021/03/15 07:29:14;;;;;;;;;;;24.10;34.40;;;;;;1543448;75;791;-63
2021/03/15 07:31:23;;;;;;;;;;;24.00;33.50;;;;;;1542945;75;728;-63
2021/03/15 07:33:25;;;;;;;;;;;24.00;33.60;;;;;;1542667;75;721;-62
2021/03/15 07:35:28;;;;;;;;;;;24.00;33.20;;;;;;1543334;75;1166;-61
2021/03/15 07:37:30;;;;;;;;;;;23.90;33.10;;;;;;1542225;75;854;-63
2021/03/15 07:39:32;;;;;;;;;;;23.90;32.30;;;;;;1537585;75;734;-61
2021/03/15 07:41:35;;;;;;;;;;;23.80;31.30;;;;;;1542446;75;867;-63
2021/03/15 07:43:37;;;;;;;;;;;23.80;30.90;;;;;;1535251;75;2164;-62
2021/03/15 07:45:40;;;;;;;;;;;23.70;31.10;;;;;;1546102;75;1151;-61
2021/03/15 07:47:42;;;;;;;;;;;23.70;31.30;;;;;;1529860;76;914;-61
2021/03/15 07:49:48;;;;;;;;;;;23.70;31.30;;;;;;1524892;75;771;-63
2021/03/15 07:51:49;;;;;;;;;;;23.70;31.50;;;;;;1525945;75;1501;-59
2021/03/15 07:53:51;;;;;;;;;;;23.70;31.00;;;;;;1532228;75;1914;-62
2021/03/15 07:55:53;;;;;;;;;;;23.60;31.60;;;;;;1523166;75;1151;-67
2021/03/15 07:57:55;;;;;;;;;;;23.60;31.20;;;;;;1503441;77;816;-61
2021/03/15 07:59:59;;;;;;;;;;;23.60;30.50;;;;;;1539840;75;757;-61
2021/03/15 08:02:01;;;;;;;;;;;23.60;29.50;;;;;;1540814;75;736;-57
2021/03/15 08:04:03;;;;;;;;;;;23.60;29.90;;;;;;1530154;75;1945;-61
2021/03/15 08:06:05;;;;;;;;;;;23.50;29.80;;;;;;1537745;75;1154;-61
2021/03/15 08:08:07;;;;;;;;;;;23.50;29.80;;;;;;1536507;75;734;-60
2021/03/15 08:10:10;;;;;;;;;;;23.50;29.80;;;;;;1536557;75;755;-61
2021/03/15 08:12:12;;;;;;;;;;;23.50;30.00;;;;;;1539151;75;695;-60
2021/03/15 08:14:14;;;;;;;;;;;23.40;29.90;;;;;;1537150;75;760;-60
2021/03/15 08:16:17;;;;;;;;;;;23.40;29.80;;;;;;1536369;75;1170;-61
2021/03/15 08:18:20;;;;;;;;;;;23.40;29.90;;;;;;1536203;75;1940;-60
2021/03/15 08:20:22;;;;;;;;;;;23.40;30.10;;;;;;1528539;75;863;-60
2021/03/15 08:22:25;;;;;;;;;;;23.40;30.00;;;;;;1533928;75;1912;-60
2021/03/15 08:24:27;;;;;;;;;;;23.40;29.70;;;;;;1533784;76;1784;-61
2021/03/15 08:26:29;;;;;;;;;;;23.30;29.70;;;;;;1532835;75;1144;-61
2021/03/15 08:28:35;;;;;;;;;;;23.30;29.80;;;;;;1536786;75;797;-62
2021/03/15 08:30:36;;;;;;;;;;;23.40;29.70;;;;;;1541192;75;813;-60
2021/03/15 08:32:40;;;;;;;;;;;23.30;30.10;;;;;;1531630;75;726;-61
2021/03/15 08:34:41;;;;;;;;;;;23.20;29.60;;;;;;1531737;75;809;-62
2021/03/15 08:36:45;;;;;;;;;;;23.20;29.20;;;;;;1533819;75;1189;-62
2021/03/15 08:38:47;;;;;;;;;;;23.20;29.50;;;;;;1531415;75;1111;-61
2021/03/15 08:40:49;;;;;;;;;;;23.20;29.50;;;;;;1533860;75;746;-61
2021/03/15 08:42:52;;;;;;;;;;;23.20;29.60;;;;;;1532326;75;1925;-60
2021/03/15 08:44:53;;;;;;;;;;;23.20;29.30;;;;;;1506499;77;1202;-62
2021/03/15 08:46:55;;;;;;;;;;;23.20;28.80;;;;;;1535915;75;1126;-60
2021/03/15 08:49:05;;;;;;;;;;;23.20;29.20;;;;;;1540539;75;771;-61
2021/03/15 08:51:07;;;;;;;;;;;23.10;29.10;;;;;;1539096;75;717;-60
2021/03/15 08:53:09;;;;;;;;;;;23.20;28.80;;;;;;1516844;77;730;-60
2021/03/15 08:55:11;;;;;;;;;;;23.10;29.20;;;;;;1567376;74;793;-60
2021/03/15 08:57:30;;;;;;;;;;;23.10;29.60;;;;;;1557814;74;911;-60
2021/03/15 08:59:32;;;;;;;;;;;23.20;29.20;;;;;;1565516;74;1893;-62
2021/03/15 09:01:45;;;;;;;;;;;23.10;28.60;;;;;;1562009;74;689;-61
2021/03/15 09:03:54;;;;;;;;;;;23.00;28.90;;;;;;1562045;74;1910;-60
2021/03/15 09:05:56;;;;;;;;;;;23.00;29.00;;;;;;1570787;74;1160;-62
2021/03/15 09:08:00;;;;;;;;;;;23.00;29.20;;;;;;1552629;74;795;-60
2021/03/15 09:10:20;;;;;;;;;;;23.00;28.60;;;;;;1566144;74;1850;-60
2021/03/15 09:12:22;;;;;;;;;;;23.00;29.10;;;;;;1565944;74;766;-65
2021/03/15 09:14:26;;;;;;;;;;;23.00;30.10;;;;;;1568393;74;769;-64
2021/03/15 09:16:31;;;;;;;;;;;23.00;30.30;;;;;;1562659;74;1168;-65
2021/03/15 09:18:41;;;;;;;;;;;22.90;30.70;;;;;;1566497;74;943;-65
2021/03/15 09:20:43;;;;;;;;;;;23.00;31.00;;;;;;1564043;74;778;-65
2021/03/15 09:22:45;;;;;;;;;;;23.00;31.30;;;;;;1564791;74;1922;-65
2021/03/15 09:24:54;;;;;;;;;;;23.00;31.60;;;;;;1570104;74;686;-65
2021/03/15 09:26:56;;;;;;;;;;;22.90;31.80;;;;;;1567755;71;215735;-55
2021/03/15 09:28:58;;;;;;;;;;;22.90;32.10;;;;;;1586351;74;742;-55
2021/03/15 09:31:01;;;;;;;;;;;23.00;32.10;;;;;;1575047;74;648;-55
2021/03/15 09:33:03;;;;;;;;;;;23.00;32.20;;;;;;1589747;74;1127;-56
2021/03/15 09:35:15;;;;;;;;;;;23.00;32.40;;;;;;1574270;74;870;-56
2021/03/15 09:37:17;;;;;;;;;;;22.90;32.50;;;;;;1575857;74;736;-57
2021/03/15 09:39:19;;;;;;;;;;;23.00;32.60;;;;;;1578370;74;673;-57
2021/03/15 09:41:22;;;;;;;;;;;23.00;32.60;;;;;;1575586;74;1158;-57
2021/03/15 09:43:25;;;;;;;;;;;23.00;32.50;;;;;;1588043;74;1933;-56
2021/03/15 09:45:28;;;;;;;;;;;23.00;32.60;;;;;;1578403;74;716;-57
2021/03/15 09:47:31;;;;;;;;;;;23.00;32.60;;;;;;1591236;74;741;-56
2021/03/15 09:49:45;;;;;;;;;;;23.00;32.70;;;;;;1584198;74;749;-56
2021/03/15 09:51:49;;;;;;;;;;;23.00;32.80;;;;;;1573276;74;1173;-56
2021/03/15 09:53:50;;;;;;;;;;;23.00;32.80;;;;;;1569875;74;1838;-55
2021/03/15 09:56:05;;;;;;;;;;;23.00;32.70;;;;;;1590279;74;686;-56
2021/03/15 09:58:07;;;;;;;;;;;23.00;32.80;;;;;;1590436;74;793;-57
2021/03/15 10:00:11;;;;;;;;;;;23.00;32.80;;;;;;1590622;74;834;-58
2021/03/15 10:02:16;;;;;;;;;;;23.10;32.90;;;;;;1582045;74;1202;-56
2021/03/15 10:04:18;;;;;;;;;;;23.00;32.80;;;;;;1585023;74;1935;-56
2021/03/15 10:06:21;;;;;;;;;;;23.10;32.80;;;;;;1586268;74;678;-58
2021/03/15 10:08:23;;;;;;;;;;;23.10;32.80;;;;;;1571559;74;723;-57
2021/03/15 10:10:25;;;;;;;;;;;23.10;32.90;;;;;;1571166;74;799;-58
2021/03/15 10:12:27;;;;;;;;;;;23.10;32.90;;;;;;1571148;74;1126;-59
2021/03/15 10:14:29;;;;;;;;;;;23.10;33.00;;;;;;1569458;74;698;-56
2021/03/15 10:16:30;;;;;;;;;;;23.20;33.10;;;;;;1561187;74;785;-57
2021/03/15 10:18:32;;;;;;;;;;;23.10;33.10;;;;;;1572173;74;724;-56
2021/03/15 10:20:35;;;;;;;;;;;23.10;33.20;;;;;;1570768;74;694;-57
2021/03/15 10:22:37;;;;;;;;;;;23.10;33.40;;;;;;1586294;74;1142;-57
2021/03/15 10:24:39;;;;;;;;;;;23.10;33.50;;;;;;1578089;74;1939;-57
2021/03/15 10:26:42;;;;;;;;;;;23.10;33.60;;;;;;1574024;74;775;-59
2021/03/15 10:28:45;;;;;;;;;;;23.10;33.70;;;;;;1581105;74;901;-58
2021/03/15 10:30:47;;;;;;;;;;;23.10;33.80;;;;;;1574804;74;1854;-57
2021/03/15 10:32:49;;;;;;;;;;;23.20;33.90;;;;;;1580092;74;1116;-57
2021/03/15 10:34:52;;;;;;;;;;;23.10;33.90;;;;;;1576107;74;747;-57
2021/03/15 10:36:54;;;;;;;;;;;23.10;34.00;;;;;;1575402;74;920;-58
2021/03/15 10:38:56;;;;;;;;;;;23.20;34.00;;;;;;1578202;74;782;-58
2021/03/15 10:40:58;;;;;;;;;;;23.10;34.00;;;;;;1579020;74;706;-57
2021/03/15 10:43:00;;;;;;;;;;;23.10;34.00;;;;;;1575763;74;1158;-59
2021/03/15 10:45:01;;;;;;;;;;;23.10;34.10;;;;;;1574203;74;1955;-58
2021/03/15 10:47:03;;;;;;;;;;;23.10;34.10;;;;;;1575306;74;741;-59
2021/03/15 10:49:15;;;;;;;;;;;23.10;34.10;;;;;;1573258;74;782;-57
2021/03/15 10:51:17;;;;;;;;;;;23.20;34.20;;;;;;1578597;74;1146;-59
2021/03/15 10:53:22;;;;;;;;;;;23.20;34.20;;;;;;1581394;74;720;-58
2021/03/15 10:55:25;;;;;;;;;;;23.20;34.20;;;;;;1577009;74;699;-58
2021/03/15 10:57:26;;;;;;;;;;;23.20;34.20;;;;;;1572684;74;713;-59
2021/03/15 10:59:32;;;;;;;;;;;23.20;34.30;;;;;;1565918;74;706;-57
2021/03/15 11:01:34;;;;;;;;;;;23.20;34.30;;;;;;1577833;74;1134;-57
2021/03/15 11:03:36;;;;;;;;;;;23.20;34.40;;;;;;1571719;74;1937;-59
2021/03/15 11:05:38;;;;;;;;;;;23.30;34.50;;;;;;1572430;74;692;-59
2021/03/15 11:07:40;;;;;;;;;;;23.20;34.50;;;;;;1575107;74;720;-60
2021/03/15 11:09:42;;;;;;;;;;;23.20;34.60;;;;;;1575315;74;803;-58
2021/03/15 11:11:43;;;;;;;;;;;23.20;34.70;;;;;;1575790;74;1155;-56
2021/03/15 11:13:52;;;;;;;;;;;23.20;34.70;;;;;;1559350;75;1260;-56
2021/03/15 11:15:54;;;;;;;;;;;23.30;34.80;;;;;;1576449;74;744;-58
2021/03/15 11:18:14;;;;;;;;;;;23.30;34.80;;;;;;1579699;74;753;-58
2021/03/15 11:20:16;;;;;;;;;;;23.30;34.90;;;;;;1574967;74;856;-55
2021/03/15 11:22:18;;;;;;;;;;;23.40;34.90;;;;;;1579781;74;1150;-56
2021/03/15 11:24:27;;;;;;;;;;;23.30;35.00;;;;;;1580996;74;1929;-56
2021/03/15 11:26:29;;;;;;;;;;;23.30;35.00;;;;;;1573165;74;699;-56
2021/03/15 11:28:31;;;;;;;;;;;23.30;35.00;;;;;;1570919;74;789;-58
2021/03/15 11:30:33;;;;;;;;;;;23.30;35.00;;;;;;1577049;74;691;-58
2021/03/15 11:32:35;;;;;;;;;;;23.30;35.00;;;;;;1581057;74;1186;-56
2021/03/15 11:34:50;;;;;;;;;;;23.40;35.00;;;;;;1578172;74;787;-58
2021/03/15 11:36:53;;;;;;;;;;;23.40;35.00;;;;;;1576756;74;736;-56
2021/03/15 11:39:05;;;;;;;;;;;23.40;35.00;;;;;;1567045;74;735;-57
2021/03/15 11:41:09;;;;;;;;;;;23.30;35.00;;;;;;1573069;74;1098;-57
2021/03/15 11:43:12;;;;;;;;;;;23.40;35.00;;;;;;1570639;74;1569;-58
2021/03/15 11:45:15;;;;;;;;;;;23.40;35.00;;;;;;1576100;74;1941;-57
2021/03/15 11:47:17;;;;;;;;;;;23.40;35.00;;;;;;1583472;74;758;-54
2021/03/15 11:49:19;;;;;;;;;;;23.40;35.00;;;;;;1586923;74;752;-57
2021/03/15 11:51:21;;;;;;;;;;;23.40;35.00;;;;;;1582201;74;1125;-56
2021/03/15 11:53:23;;;;;;;;;;;23.40;35.00;;;;;;1573980;74;678;-56
2021/03/15 11:55:24;;;;;;;;;;;23.40;35.00;;;;;;1578324;74;723;-55
2021/03/15 11:57:26;;;;;;;;;;;23.40;34.90;;;;;;1569416;74;666;-56
2021/03/15 11:59:28;;;;;;;;;;;23.40;35.00;;;;;;1574374;74;570;-55
2021/03/15 12:01:30;;;;;;;;;;;23.50;35.10;;;;;;1572365;74;1139;-55
2021/03/15 12:03:32;;;;;;;;;;;23.40;35.00;;;;;;1566250;74;1943;-55
2021/03/15 12:05:34;;;;;;;;;;;23.50;35.10;;;;;;1576906;74;750;-55
2021/03/15 12:07:36;;;;;;;;;;;23.40;35.00;;;;;;1574582;74;729;-55
2021/03/15 12:09:38;;;;;;;;;;;23.40;35.00;;;;;;1576247;74;790;-56
2021/03/15 12:11:40;;;;;;;;;;;23.40;35.00;;;;;;1578979;74;1143;-58
2021/03/15 12:13:42;;;;;;;;;;;23.40;35.00;;;;;;1575539;74;814;-55
2021/03/15 12:15:44;;;;;;;;;;;23.40;35.00;;;;;;1571490;74;706;-56